Time;durP1;ratioP1;P1;durP2;ratioP2;P2;SDS_P1;SDS_P2;PMS_P1;PMS_P2;Temp;Humidity;BMP_temperature;BMP_pressure;BME280_temperature;BME280_humidity;BME280_pressure;Samples;Min_cycle;Max_cycle;Signal;HPM_P1;HPM_P2
2022/04/02 00:02:07;;;;;;;22.05;19.05;;;;;;;;;;4870307;29;20069;-95
2022/04/02 00:04:33;;;;;;;24.67;21.98;;;;;;;;;;4886821;29;20408;-95
2022/04/02 00:06:59;;;;;;;24.85;20.88;;;;;;;;;;4886940;29;20045;-94
2022/04/02 00:09:26;;;;;;;26.98;22.05;;;;;;;;;;4870190;29;20174;-94
2022/04/02 00:11:52;;;;;;;24.05;20.80;;;;;;;;;;4885854;29;20033;-94
2022/04/02 00:14:18;;;;;;;24.17;20.60;;;;;;;;;;4886696;29;20025;-95
2022/04/02 00:19:20;;;;;;;22.17;19.23;;;;;;;;;;4904359;23;20053;-96
2022/04/02 00:21:46;;;;;;;22.58;20.13;;;;;;;;;;4887560;29;20041;-96
2022/04/02 00:24:12;;;;;;;25.00;20.55;;;;;;;;;;4887490;29;20028;-95
2022/04/02 00:26:39;;;;;;;24.25;20.88;;;;;;;;;;4887004;29;20025;-96
2022/04/02 00:29:07;;;;;;;22.42;20.00;;;;;;;;;;4876933;29;20033;-94
2022/04/02 00:31:33;;;;;;;24.40;21.20;;;;;;;;;;4870557;29;20025;-94
2022/04/02 00:33:59;;;;;;;23.77;20.40;;;;;;;;;;4871160;29;20021;-94
2022/04/02 00:36:25;;;;;;;26.05;20.75;;;;;;;;;;4887066;29;20057;-94
2022/04/02 00:38:51;;;;;;;25.30;20.17;;;;;;;;;;4886361;29;20029;-93
2022/04/02 00:41:17;;;;;;;22.80;19.48;;;;;;;;;;4886333;29;20331;-95
2022/04/02 00:43:55;;;;;;;23.63;20.70;;;;;;;;;;4885501;29;20029;-93
2022/04/02 00:46:22;;;;;;;22.92;19.10;;;;;;;;;;4885973;29;20022;-94
2022/04/02 00:48:49;;;;;;;24.02;20.67;;;;;;;;;;4886495;29;20037;-96
2022/04/02 00:51:16;;;;;;;24.25;20.77;;;;;;;;;;4886394;29;20033;-96
2022/04/02 00:56:18;;;;;;;23.13;20.15;;;;;;;;;;5462318;23;20068;-96
2022/04/02 01:03:58;;;;;;;22.35;19.95;;;;;;;;;;5619013;23;20355;-96
2022/04/02 01:06:24;;;;;;;22.52;20.13;;;;;;;;;;4886648;29;20029;-92
2022/04/02 01:08:50;;;;;;;24.55;21.42;;;;;;;;;;4885685;29;20480;-94
2022/04/02 01:11:16;;;;;;;23.45;20.58;;;;;;;;;;4885685;29;20021;-93
2022/04/02 01:13:42;;;;;;;24.02;21.08;;;;;;;;;;4885792;29;20394;-93
2022/04/02 01:16:20;;;;;;;24.65;21.23;;;;;;;;;;4871588;29;20025;-96
2022/04/02 01:18:46;;;;;;;25.83;21.13;;;;;;;;;;4885427;29;20408;-93
2022/04/02 01:21:12;;;;;;;26.33;23.05;;;;;;;;;;4885584;29;20036;-93
2022/04/02 01:23:38;;;;;;;24.98;21.52;;;;;;;;;;4869029;29;20112;-93
2022/04/02 01:26:04;;;;;;;24.83;21.67;;;;;;;;;;4885194;29;20029;-94
2022/04/02 01:28:33;;;;;;;24.98;21.40;;;;;;;;;;4885517;29;20059;-92
2022/04/02 01:31:06;;;;;;;26.35;22.17;;;;;;;;;;4885182;29;20397;-94
2022/04/02 01:33:33;;;;;;;25.42;22.55;;;;;;;;;;4886336;29;20037;-93
2022/04/02 01:36:00;;;;;;;25.98;21.70;;;;;;;;;;4885551;29;20040;-94
2022/04/02 01:38:26;;;;;;;26.95;23.02;;;;;;;;;;4885460;29;20110;-91
2022/04/02 01:40:53;;;;;;;30.67;25.13;;;;;;;;;;4884967;29;20025;-92
2022/04/02 01:43:19;;;;;;;28.38;21.90;;;;;;;;;;4884850;29;20025;-90
2022/04/02 01:45:45;;;;;;;29.02;23.83;;;;;;;;;;4868713;29;20032;-91
2022/04/02 01:48:11;;;;;;;29.02;24.42;;;;;;;;;;4885105;29;20066;-93
2022/04/02 01:50:37;;;;;;;28.42;23.85;;;;;;;;;;4884944;29;20033;-95
2022/04/02 01:53:04;;;;;;;30.77;24.08;;;;;;;;;;4884832;29;20032;-92
2022/04/02 01:55:30;;;;;;;29.35;23.70;;;;;;;;;;4868347;29;20085;-92
2022/04/02 01:57:56;;;;;;;28.20;23.95;;;;;;;;;;4884772;29;20025;-91
2022/04/02 02:00:22;;;;;;;27.80;22.67;;;;;;;;;;4884880;29;20024;-92
2022/04/02 02:02:48;;;;;;;29.05;24.33;;;;;;;;;;4868156;29;20040;-94
2022/04/02 02:05:14;;;;;;;28.83;24.15;;;;;;;;;;4884286;29;20321;-92
2022/04/02 02:07:40;;;;;;;29.30;24.60;;;;;;;;;;4884742;29;20040;-92
2022/04/02 02:10:07;;;;;;;29.92;24.63;;;;;;;;;;4884634;29;20029;-93
2022/04/02 02:12:33;;;;;;;30.40;25.35;;;;;;;;;;4884252;29;20146;-91
2022/04/02 02:14:59;;;;;;;29.63;24.23;;;;;;;;;;4884666;29;20443;-93
2022/04/02 02:17:25;;;;;;;28.63;24.90;;;;;;;;;;4868067;29;20032;-93
2022/04/02 02:19:51;;;;;;;28.85;24.58;;;;;;;;;;4884519;29;20092;-93
2022/04/02 02:22:17;;;;;;;31.25;25.27;;;;;;;;;;4884451;29;20025;-92
2022/04/02 02:24:43;;;;;;;29.85;25.25;;;;;;;;;;4884313;29;20039;-94
2022/04/02 02:27:09;;;;;;;29.45;24.52;;;;;;;;;;4884286;29;20141;-93
2022/04/02 02:29:36;;;;;;;32.88;25.45;;;;;;;;;;4884154;29;20033;-94
2022/04/02 02:32:02;;;;;;;31.95;26.35;;;;;;;;;;4867863;29;20025;-93
2022/04/02 02:37:12;;;;;;;31.15;24.80;;;;;;;;;;4884336;29;20328;-92
2022/04/02 02:39:38;;;;;;;30.13;25.17;;;;;;;;;;4884438;29;20033;-93
2022/04/02 02:42:04;;;;;;;32.78;26.30;;;;;;;;;;4884159;29;20065;-94
2022/04/02 02:44:30;;;;;;;31.10;25.27;;;;;;;;;;4867901;29;20029;-94
2022/04/02 02:46:57;;;;;;;31.52;25.98;;;;;;;;;;4884390;29;20033;-95
2022/04/02 02:49:23;;;;;;;33.05;26.50;;;;;;;;;;4867584;29;20060;-92
2022/04/02 02:51:49;;;;;;;35.40;28.77;;;;;;;;;;4883820;29;20029;-95
2022/04/02 02:54:15;;;;;;;34.25;28.00;;;;;;;;;;4884178;29;20032;-94
2022/04/02 02:56:41;;;;;;;34.30;27.00;;;;;;;;;;4883985;29;20298;-95
2022/04/02 02:59:07;;;;;;;35.05;27.42;;;;;;;;;;4883519;29;20029;-93
2022/04/02 03:01:33;;;;;;;37.10;28.25;;;;;;;;;;4883906;29;20033;-94
2022/04/02 03:04:00;;;;;;;35.75;28.58;;;;;;;;;;4867456;29;20087;-93
2022/04/02 03:06:26;;;;;;;35.65;28.83;;;;;;;;;;4883444;29;20412;-92
2022/04/02 03:08:52;;;;;;;39.83;31.30;;;;;;;;;;4883230;29;20077;-94
2022/04/02 03:11:18;;;;;;;50.92;34.95;;;;;;;;;;4867523;29;20033;-94
2022/04/02 03:13:46;;;;;;;47.50;33.63;;;;;;;;;;4883424;29;20036;-92
2022/04/02 03:19:37;;;;;;;42.60;33.38;;;;;;;;;;4790706;29;20041;-94
2022/04/02 03:22:03;;;;;;;43.25;33.28;;;;;;;;;;4806441;29;20089;-94
2022/04/02 03:24:30;;;;;;;41.22;32.30;;;;;;;;;;4808752;29;20038;-92
2022/04/02 03:26:56;;;;;;;38.78;29.05;;;;;;;;;;4808952;29;20043;-93
2022/04/02 03:29:22;;;;;;;40.63;29.60;;;;;;;;;;4808600;29;20115;-93
2022/04/02 03:31:48;;;;;;;39.83;30.83;;;;;;;;;;4793434;29;20035;-93
2022/04/02 03:34:16;;;;;;;40.15;30.55;;;;;;;;;;4808486;29;20047;-95
2022/04/02 03:36:43;;;;;;;41.63;31.48;;;;;;;;;;4808626;29;20135;-94
2022/04/02 03:39:09;;;;;;;37.92;28.92;;;;;;;;;;4793458;29;20039;-93
2022/04/02 03:41:35;;;;;;;40.28;30.70;;;;;;;;;;4793636;29;20038;-92
2022/04/02 03:44:01;;;;;;;40.90;29.75;;;;;;;;;;4812171;29;20031;-94
2022/04/02 03:49:39;;;;;;;;;;;;;;;;;;;;;
2022/04/02 03:52:44;;;;;;;;;;;;;;;;;;;;;
2022/04/02 04:01:01;;;;;;;39.78;29.85;;;;;;;;;;5279629;23;20056;-95
2022/04/02 04:03:27;;;;;;;39.50;29.98;;;;;;;;;;4896096;29;20032;-96
2022/04/02 04:05:53;;;;;;;42.42;31.08;;;;;;;;;;4924205;29;20039;-94
2022/04/02 04:08:29;;;;;;;44.92;31.80;;;;;;;;;;4921645;29;20115;-95
2022/04/02 04:11:08;;;;;;;40.30;29.83;;;;;;;;;;4920678;29;20495;-95
2022/04/02 04:20:32;;;;;;;42.17;30.95;;;;;;;;;;4829258;29;20054;-94
2022/04/02 04:34:06;;;;;;;42.97;32.13;;;;;;;;;;5271703;23;20063;-96
2022/04/02 04:36:36;;;;;;;48.30;32.85;;;;;;;;;;4906699;29;20032;-95
2022/04/02 04:39:03;;;;;;;42.70;31.80;;;;;;;;;;4923797;29;20031;-95
2022/04/02 04:41:29;;;;;;;44.88;32.55;;;;;;;;;;4923832;29;20032;-94
2022/04/02 04:43:55;;;;;;;46.75;33.13;;;;;;;;;;4924089;29;20310;-95
2022/04/02 04:46:21;;;;;;;45.38;33.00;;;;;;;;;;4907106;29;20024;-93
2022/04/02 04:48:47;;;;;;;44.00;32.20;;;;;;;;;;4923515;29;20020;-95
2022/04/02 04:51:14;;;;;;;44.88;32.75;;;;;;;;;;4923680;29;20103;-94
2022/04/02 04:53:40;;;;;;;42.90;32.22;;;;;;;;;;4924039;29;20323;-93
2022/04/02 04:56:07;;;;;;;43.33;32.75;;;;;;;;;;4923580;29;20024;-95
2022/04/02 04:58:33;;;;;;;42.55;31.35;;;;;;;;;;4924311;29;20024;-93
2022/04/02 05:07:13;;;;;;;46.47;33.60;;;;;;;;;;4815894;29;20042;-96
2022/04/02 05:09:42;;;;;;;46.53;32.92;;;;;;;;;;4813320;29;20050;-94
2022/04/02 05:12:08;;;;;;;50.72;34.58;;;;;;;;;;4816604;29;20426;-94
2022/04/02 05:14:38;;;;;;;46.10;34.58;;;;;;;;;;4795011;23;20038;-95
2022/04/02 05:23:39;;;;;;;47.25;33.08;;;;;;;;;;4848773;29;20045;-94
2022/04/02 05:26:05;;;;;;;49.17;34.25;;;;;;;;;;4848855;29;20109;-94
2022/04/02 05:28:31;;;;;;;55.42;37.42;;;;;;;;;;4856811;29;20025;-93
2022/04/02 05:30:57;;;;;;;51.58;34.58;;;;;;;;;;4866713;29;20078;-95
2022/04/02 05:33:23;;;;;;;52.88;36.22;;;;;;;;;;4866457;29;20109;-94
2022/04/02 05:35:49;;;;;;;50.25;35.35;;;;;;;;;;4866794;29;20033;-94
2022/04/02 05:38:16;;;;;;;47.50;33.70;;;;;;;;;;4866455;29;20055;-94
2022/04/02 05:40:42;;;;;;;52.95;35.35;;;;;;;;;;4867095;29;20471;-96
2022/04/02 05:43:09;;;;;;;49.55;34.25;;;;;;;;;;4866545;29;20443;-96
2022/04/02 05:45:35;;;;;;;46.35;33.15;;;;;;;;;;4866340;29;20041;-96
2022/04/02 05:48:01;;;;;;;47.08;32.83;;;;;;;;;;4866770;29;20025;-93
2022/04/02 05:50:27;;;;;;;46.65;33.13;;;;;;;;;;4866647;29;20050;-94
2022/04/02 05:52:54;;;;;;;51.25;36.15;;;;;;;;;;4866718;29;20028;-93
2022/04/02 05:55:20;;;;;;;49.72;36.13;;;;;;;;;;4866009;29;20022;-94
2022/04/02 05:57:48;;;;;;;50.25;33.92;;;;;;;;;;4854325;29;20029;-95
2022/04/02 06:00:19;;;;;;;49.33;34.08;;;;;;;;;;4867697;29;20030;-95
2022/04/02 06:05:49;;;;;;;50.58;35.35;;;;;;;;;;4864280;29;20050;-94
2022/04/02 06:08:20;;;;;;;52.70;35.83;;;;;;;;;;4866374;29;20033;-94
2022/04/02 06:11:14;;;;;;;52.20;35.70;;;;;;;;;;4867876;29;20056;-96
2022/04/02 06:13:49;;;;;;;50.85;34.80;;;;;;;;;;4868187;29;20022;-96
2022/04/02 06:22:23;;;;;;;51.50;34.92;;;;;;;;;;4964869;24;20147;-95
2022/04/02 06:24:49;;;;;;;52.58;35.63;;;;;;;;;;4904049;29;20032;-95
2022/04/02 06:27:15;;;;;;;48.78;34.60;;;;;;;;;;4888602;29;20040;-96
2022/04/02 06:32:13;;;;;;;50.03;34.95;;;;;;;;;;4901623;29;20056;-95
2022/04/02 06:34:39;;;;;;;50.40;34.58;;;;;;;;;;5085956;23;20063;-95
2022/04/02 06:37:05;;;;;;;52.42;35.50;;;;;;;;;;4903442;29;20024;-95
2022/04/02 06:39:32;;;;;;;52.40;35.55;;;;;;;;;;4892342;29;20049;-95
2022/04/02 06:42:03;;;;;;;54.60;37.17;;;;;;;;;;4897742;29;20036;-94
2022/04/02 06:44:30;;;;;;;50.50;34.40;;;;;;;;;;4902102;29;20335;-95
2022/04/02 06:47:02;;;;;;;48.80;34.53;;;;;;;;;;4902555;29;20032;-94
2022/04/02 06:52:07;;;;;;;54.15;36.42;;;;;;;;;;5740508;23;20254;-95
2022/04/02 06:54:33;;;;;;;52.95;36.75;;;;;;;;;;4889565;29;20037;-96
2022/04/02 06:59:45;;;;;;;53.97;37.35;;;;;;;;;;4967025;23;20058;-93
2022/04/02 07:08:19;;;;;;;53.58;36.50;;;;;;;;;;4884148;29;20157;-95
2022/04/02 07:10:45;;;;;;;51.60;36.60;;;;;;;;;;4867425;29;20029;-96
2022/04/02 07:13:29;;;;;;;48.47;34.38;;;;;;;;;;5101352;27;20427;-95
2022/04/02 07:15:57;;;;;;;43.78;32.38;;;;;;;;;;5111256;28;20374;-95
2022/04/02 07:18:27;;;;;;;46.90;34.38;;;;;;;;;;5098256;28;20044;-94
2022/04/02 07:20:56;;;;;;;49.97;34.95;;;;;;;;;;5093977;28;20410;-94
2022/04/02 07:23:22;;;;;;;51.97;35.85;;;;;;;;;;5096977;28;21199;-91
2022/04/02 07:25:49;;;;;;;52.42;36.58;;;;;;;;;;5115791;28;20065;-95
2022/04/02 07:28:15;;;;;;;53.05;38.10;;;;;;;;;;5116573;28;20420;-92
2022/04/02 07:30:42;;;;;;;60.90;42.42;;;;;;;;;;5115070;28;20058;-93
2022/04/02 07:33:08;;;;;;;56.40;39.22;;;;;;;;;;5117339;28;20020;-91
2022/04/02 07:35:35;;;;;;;49.83;37.10;;;;;;;;;;5115333;28;20099;-93
2022/04/02 07:38:01;;;;;;;60.10;41.85;;;;;;;;;;5113953;28;20046;-93
2022/04/02 07:40:29;;;;;;;50.83;36.45;;;;;;;;;;5115292;28;20024;-93
2022/04/02 07:43:12;;;;;;;46.50;34.00;;;;;;;;;;5113829;28;20464;-93
2022/04/02 07:45:40;;;;;;;50.00;35.58;;;;;;;;;;5115433;28;20044;-93
2022/04/02 07:48:08;;;;;;;48.55;35.67;;;;;;;;;;5114848;28;20421;-94
2022/04/02 07:50:35;;;;;;;50.38;36.20;;;;;;;;;;5114708;28;20020;-93
2022/04/02 07:53:05;;;;;;;47.47;34.00;;;;;;;;;;5113848;28;20024;-93
2022/04/02 07:55:32;;;;;;;48.58;34.05;;;;;;;;;;5114922;28;20427;-93
2022/04/02 07:58:02;;;;;;;49.08;34.47;;;;;;;;;;5113750;28;20075;-93
2022/04/02 08:00:28;;;;;;;44.63;32.92;;;;;;;;;;5113791;28;20046;-93
2022/04/02 08:02:54;;;;;;;44.88;32.53;;;;;;;;;;5114498;28;20023;-95
2022/04/02 08:05:21;;;;;;;44.00;31.95;;;;;;;;;;5113842;28;20027;-93
2022/04/02 08:07:54;;;;;;;54.55;38.05;;;;;;;;;;5114359;28;20352;-93
2022/04/02 08:10:23;;;;;;;42.08;32.17;;;;;;;;;;5114882;28;20047;-93
2022/04/02 08:12:49;;;;;;;43.20;32.17;;;;;;;;;;5113291;28;20100;-94
2022/04/02 08:15:16;;;;;;;67.72;45.80;;;;;;;;;;5115442;28;20103;-95
2022/04/02 08:17:43;;;;;;;50.78;36.65;;;;;;;;;;5114356;28;20024;-93
2022/04/02 08:20:10;;;;;;;44.95;32.00;;;;;;;;;;5114248;28;20035;-93
2022/04/02 08:22:37;;;;;;;48.92;35.00;;;;;;;;;;5112618;28;20034;-93
2022/04/02 08:25:03;;;;;;;47.15;35.15;;;;;;;;;;5099303;28;20024;-93
2022/04/02 08:27:33;;;;;;;46.30;34.80;;;;;;;;;;5099894;28;20061;-94
2022/04/02 08:30:16;;;;;;;46.17;33.53;;;;;;;;;;5100710;28;20039;-94
2022/04/02 08:32:45;;;;;;;44.00;31.88;;;;;;;;;;5100397;28;20020;-92
2022/04/02 08:35:12;;;;;;;75.60;44.17;;;;;;;;;;5100794;28;20024;-93
2022/04/02 08:37:38;;;;;;;145.25;63.67;;;;;;;;;;5100348;28;20406;-93
2022/04/02 08:40:07;;;;;;;57.92;38.10;;;;;;;;;;5099393;28;20418;-94
2022/04/02 08:42:36;;;;;;;49.47;34.92;;;;;;;;;;5100482;28;20489;-93
2022/04/02 08:45:04;;;;;;;54.83;35.72;;;;;;;;;;5100299;28;20020;-93
2022/04/02 08:47:41;;;;;;;47.00;33.83;;;;;;;;;;5100004;28;20451;-93
2022/04/02 08:50:07;;;;;;;47.45;34.80;;;;;;;;;;5099189;28;20020;-92
2022/04/02 08:52:42;;;;;;;57.03;37.58;;;;;;;;;;5099209;28;20027;-93
2022/04/02 08:55:08;;;;;;;56.97;39.58;;;;;;;;;;5100423;28;20073;-94
2022/04/02 08:57:53;;;;;;;48.50;34.55;;;;;;;;;;5099084;28;20024;-93
2022/04/02 09:00:24;;;;;;;47.08;35.47;;;;;;;;;;5099905;28;20027;-92
2022/04/02 09:03:05;;;;;;;45.58;32.83;;;;;;;;;;5099850;28;20345;-93
2022/04/02 09:06:01;;;;;;;51.60;36.55;;;;;;;;;;5098865;28;20024;-93
2022/04/02 09:08:43;;;;;;;51.05;36.08;;;;;;;;;;5098990;28;20056;-93
2022/04/02 09:11:09;;;;;;;50.72;35.13;;;;;;;;;;5098410;28;20114;-92
2022/04/02 09:13:41;;;;;;;46.67;33.30;;;;;;;;;;5098863;28;20073;-92
2022/04/02 09:16:08;;;;;;;;;;;;;;;;;;5086716;28;20036;-93
2022/04/02 09:18:40;;;;;;;56.53;38.55;;;;;;;;;;5077848;28;19909;-89
2022/04/02 09:21:09;;;;;;;53.92;37.63;;;;;;;;;;5076735;28;20020;-93
2022/04/02 09:23:45;;;;;;;46.38;32.88;;;;;;;;;;5078325;28;20031;-91
2022/04/02 09:26:17;;;;;;;48.22;36.15;;;;;;;;;;5079424;28;20095;-94
2022/04/02 09:28:43;;;;;;;42.63;32.15;;;;;;;;;;5079372;28;20035;-93
2022/04/02 09:31:20;;;;;;;39.47;30.17;;;;;;;;;;5079095;28;20098;-92
2022/04/02 09:34:05;;;;;;;44.97;33.78;;;;;;;;;;5079623;28;20039;-91
2022/04/02 09:36:40;;;;;;;52.95;37.58;;;;;;;;;;5078007;28;20495;-92
2022/04/02 09:39:07;;;;;;;48.47;36.42;;;;;;;;;;5078339;28;20425;-93
2022/04/02 09:41:56;;;;;;;44.00;33.58;;;;;;;;;;5079104;28;20029;-93
2022/04/02 09:44:33;;;;;;;43.42;32.00;;;;;;;;;;5078795;28;20100;-93
2022/04/02 09:46:59;;;;;;;41.97;31.25;;;;;;;;;;5056446;28;20041;-93
2022/04/02 09:49:31;;;;;;;40.15;29.90;;;;;;;;;;5058812;28;20043;-91
2022/04/02 09:52:04;;;;;;;40.47;31.13;;;;;;;;;;5057988;28;20028;-92
2022/04/02 09:54:37;;;;;;;45.13;32.72;;;;;;;;;;5058746;28;20052;-92
2022/04/02 09:57:15;;;;;;;43.17;31.30;;;;;;;;;;5058462;28;20021;-93
2022/04/02 09:59:58;;;;;;;38.65;29.45;;;;;;;;;;5057795;28;20119;-91
2022/04/02 10:03:00;;;;;;;39.50;31.15;;;;;;;;;;5058498;28;20296;-92
2022/04/02 10:05:54;;;;;;;42.10;32.22;;;;;;;;;;5017141;28;20320;-93
2022/04/02 10:08:35;;;;;;;42.97;32.40;;;;;;;;;;5014610;28;20379;-91
2022/04/02 10:11:02;;;;;;;39.20;30.25;;;;;;;;;;5017070;28;20024;-92
2022/04/02 10:13:33;;;;;;;44.63;32.17;;;;;;;;;;5000761;28;20036;-93
2022/04/02 10:16:00;;;;;;;40.33;31.10;;;;;;;;;;5016986;28;20034;-93
2022/04/02 10:18:27;;;;;;;40.92;31.48;;;;;;;;;;5016687;28;20022;-93
2022/04/02 10:20:54;;;;;;;41.58;31.33;;;;;;;;;;5016782;28;20424;-93
2022/04/02 10:23:23;;;;;;;42.28;31.80;;;;;;;;;;5017706;28;20095;-92
2022/04/02 10:25:52;;;;;;;42.40;33.45;;;;;;;;;;5036561;28;20442;-93
2022/04/02 10:28:21;;;;;;;46.42;34.17;;;;;;;;;;5036554;28;20037;-93
2022/04/02 10:30:50;;;;;;;43.47;34.00;;;;;;;;;;5036806;28;20029;-92
2022/04/02 10:33:27;;;;;;;46.72;36.38;;;;;;;;;;5036422;28;20033;-92
2022/04/02 10:35:53;;;;;;;38.88;30.08;;;;;;;;;;5036391;28;20021;-92
2022/04/02 10:38:36;;;;;;;39.22;30.15;;;;;;;;;;5036038;28;20045;-92
2022/04/02 10:41:10;;;;;;;39.30;30.67;;;;;;;;;;5058832;28;20028;-92
2022/04/02 10:43:37;;;;;;;44.35;31.58;;;;;;;;;;5066387;28;20040;-91
2022/04/02 10:46:05;;;;;;;40.83;31.92;;;;;;;;;;5058355;28;20404;-92
2022/04/02 10:48:49;;;;;;;39.00;31.35;;;;;;;;;;5076410;28;20028;-90
2022/04/02 10:51:17;;;;;;;39.22;30.60;;;;;;;;;;5077727;28;20095;-90
2022/04/02 10:53:44;;;;;;;39.45;30.05;;;;;;;;;;5077877;28;20048;-91
2022/04/02 10:56:17;;;;;;;46.97;33.45;;;;;;;;;;5076889;28;20035;-91
2022/04/02 10:58:48;;;;;;;42.22;31.45;;;;;;;;;;5077664;28;20024;-92
2022/04/02 11:01:17;;;;;;;59.25;31.95;;;;;;;;;;5063383;28;20037;-91
2022/04/02 11:03:47;;;;;;;40.60;31.25;;;;;;;;;;5057293;28;20017;-89
2022/04/02 11:06:33;;;;;;;41.75;32.00;;;;;;;;;;5057602;28;20021;-93
2022/04/02 11:08:59;;;;;;;40.45;31.65;;;;;;;;;;5056684;28;20021;-90
2022/04/02 11:11:27;;;;;;;43.58;32.03;;;;;;;;;;5057060;28;20102;-92
2022/04/02 11:14:01;;;;;;;41.30;30.55;;;;;;;;;;5057598;28;20045;-92
2022/04/02 11:16:39;;;;;;;38.25;29.63;;;;;;;;;;5056475;28;20058;-94
2022/04/02 11:22:00;;;;;;;39.35;29.27;;;;;;;;;;5057444;28;20079;-94
2022/04/02 11:24:31;;;;;;;37.88;30.10;;;;;;;;;;5056420;28;20021;-92
2022/04/02 11:26:58;;;;;;;38.75;29.52;;;;;;;;;;5057427;28;20029;-94
2022/04/02 11:29:25;;;;;;;41.28;32.20;;;;;;;;;;5057448;28;20081;-94
2022/04/02 11:31:51;;;;;;;40.97;31.00;;;;;;;;;;5057191;28;20028;-93
2022/04/02 11:34:19;;;;;;;42.60;31.67;;;;;;;;;;5057039;28;20025;-94
2022/04/02 11:36:49;;;;;;;48.75;34.38;;;;;;;;;;5056265;28;20025;-93
2022/04/02 11:39:26;;;;;;;39.90;31.42;;;;;;;;;;5057109;28;20029;-93
2022/04/02 11:41:57;;;;;;;43.75;32.30;;;;;;;;;;5056120;28;20327;-94
2022/04/02 11:44:34;;;;;;;42.88;31.90;;;;;;;;;;5057382;28;20029;-93
2022/04/02 11:47:02;;;;;;;43.50;33.80;;;;;;;;;;5057235;28;20496;-93
2022/04/02 11:49:29;;;;;;;39.72;30.88;;;;;;;;;;5057411;28;20100;-95
2022/04/02 11:52:07;;;;;;;40.60;32.17;;;;;;;;;;5057077;28;20025;-92
2022/04/02 11:54:39;;;;;;;43.28;33.30;;;;;;;;;;5057052;28;20108;-94
2022/04/02 11:57:12;;;;;;;40.75;31.45;;;;;;;;;;5057418;28;20112;-93
2022/04/02 11:59:49;;;;;;;47.45;33.65;;;;;;;;;;5059699;28;20033;-93
2022/04/02 12:02:33;;;;;;;47.55;33.53;;;;;;;;;;5061022;28;20087;-92
2022/04/02 12:05:02;;;;;;;42.40;32.53;;;;;;;;;;5060642;28;20021;-94
2022/04/02 12:07:43;;;;;;;43.95;32.83;;;;;;;;;;5059851;28;20017;-93
2022/04/02 12:10:17;;;;;;;43.45;33.03;;;;;;;;;;5060967;28;20418;-94
2022/04/02 12:12:48;;;;;;;43.53;32.08;;;;;;;;;;5060289;28;20438;-94
2022/04/02 12:15:15;;;;;;;43.42;31.85;;;;;;;;;;5060438;28;20041;-92
2022/04/02 12:17:44;;;;;;;51.97;35.53;;;;;;;;;;5059477;28;20083;-94
2022/04/02 12:20:11;;;;;;;45.65;33.47;;;;;;;;;;5060347;28;20426;-93
2022/04/02 12:22:39;;;;;;;53.35;36.33;;;;;;;;;;5060137;28;20044;-93
2022/04/02 12:25:05;;;;;;;58.65;35.70;;;;;;;;;;5059932;28;20411;-93
2022/04/02 12:27:33;;;;;;;62.75;37.53;;;;;;;;;;5060678;28;20032;-94
2022/04/02 12:30:01;;;;;;;69.15;40.92;;;;;;;;;;5059471;28;20017;-94
2022/04/02 12:32:33;;;;;;;50.00;33.78;;;;;;;;;;5060844;28;20100;-91
2022/04/02 12:35:00;;;;;;;47.70;34.20;;;;;;;;;;5059577;28;20098;-93
2022/04/02 12:37:28;;;;;;;57.83;35.20;;;;;;;;;;5060255;28;20029;-93
2022/04/02 12:39:54;;;;;;;51.20;36.58;;;;;;;;;;5080731;28;20152;-93
2022/04/02 12:42:36;;;;;;;48.65;33.92;;;;;;;;;;5078934;28;20033;-92
2022/04/02 12:45:10;;;;;;;48.03;33.35;;;;;;;;;;5080499;28;20036;-93
2022/04/02 12:47:36;;;;;;;52.50;36.10;;;;;;;;;;5063870;28;20108;-94
2022/04/02 12:50:16;;;;;;;51.63;36.22;;;;;;;;;;5060284;28;20025;-96
2022/04/02 12:52:46;;;;;;;48.75;33.80;;;;;;;;;;5090065;28;20134;-95
2022/04/02 12:55:19;;;;;;;52.55;35.45;;;;;;;;;;5100651;28;20028;-92
2022/04/02 12:57:55;;;;;;;43.67;31.90;;;;;;;;;;5100728;28;20035;-95
2022/04/02 13:00:26;;;;;;;45.10;32.33;;;;;;;;;;5098718;28;20031;-95
2022/04/02 13:02:56;;;;;;;43.65;31.88;;;;;;;;;;5100375;28;20023;-93
2022/04/02 13:05:24;;;;;;;41.85;30.67;;;;;;;;;;5099041;28;20024;-95
2022/04/02 13:08:04;;;;;;;44.70;33.10;;;;;;;;;;5098960;28;20020;-95
2022/04/02 13:10:31;;;;;;;44.40;31.75;;;;;;;;;;5099635;28;20066;-95
2022/04/02 13:12:59;;;;;;;45.03;30.83;;;;;;;;;;5098318;28;20055;-94
2022/04/02 13:15:29;;;;;;;40.80;28.90;;;;;;;;;;5099188;28;20023;-94
2022/04/02 13:20:44;;;;;;;35.10;26.27;;;;;;;;;;5100057;28;20383;-95
2022/04/02 13:23:26;;;;;;;30.13;21.40;;;;;;;;;;5098622;28;20020;-94
2022/04/02 13:26:01;;;;;;;27.08;17.27;;;;;;;;;;5099366;28;20024;-95
2022/04/02 13:30:54;;;;;;;24.33;16.40;;;;;;;;;;5281241;22;20046;-96
2022/04/02 13:33:20;;;;;;;24.67;15.95;;;;;;;;;;5039162;28;20021;-93
2022/04/02 13:35:47;;;;;;;24.23;15.77;;;;;;;;;;5038314;28;20116;-94
2022/04/02 13:38:28;;;;;;;23.98;15.82;;;;;;;;;;5039360;28;20029;-95
2022/04/02 13:40:59;;;;;;;16.90;12.65;;;;;;;;;;5038086;28;20071;-95
2022/04/02 13:43:30;;;;;;;20.10;13.60;;;;;;;;;;5038730;28;20033;-95
2022/04/02 13:45:57;;;;;;;20.45;14.88;;;;;;;;;;5039130;28;20023;-94
2022/04/02 13:48:26;;;;;;;19.65;13.50;;;;;;;;;;5039055;28;20028;-94
2022/04/02 13:51:01;;;;;;;20.30;14.30;;;;;;;;;;5038872;28;20415;-95
2022/04/02 13:53:36;;;;;;;20.10;14.27;;;;;;;;;;5038784;28;20025;-95
2022/04/02 13:56:07;;;;;;;20.70;13.60;;;;;;;;;;5038240;28;20421;-94
2022/04/02 13:58:34;;;;;;;20.60;14.38;;;;;;;;;;5037625;28;20116;-94
2022/04/02 14:01:08;;;;;;;26.27;15.57;;;;;;;;;;5038671;28;20036;-95
2022/04/02 14:03:35;;;;;;;23.30;13.88;;;;;;;;;;5037373;28;20040;-94
2022/04/02 14:06:03;;;;;;;17.27;11.93;;;;;;;;;;5038461;28;20053;-93
2022/04/02 14:08:36;;;;;;;26.60;14.30;;;;;;;;;;5038102;28;20021;-95
2022/04/02 14:11:16;;;;;;;23.02;13.15;;;;;;;;;;5037646;28;20112;-95
2022/04/02 14:13:48;;;;;;;29.10;15.13;;;;;;;;;;5037326;28;20026;-95
2022/04/02 14:16:14;;;;;;;23.27;13.38;;;;;;;;;;5038408;28;20155;-94
2022/04/02 14:18:44;;;;;;;29.42;15.93;;;;;;;;;;5038266;28;20033;-95
2022/04/02 14:21:18;;;;;;;22.48;11.88;;;;;;;;;;5036898;28;20029;-95
2022/04/02 14:24:02;;;;;;;18.38;12.18;;;;;;;;;;5037287;28;20033;-93
2022/04/02 14:26:47;;;;;;;16.40;10.57;;;;;;;;;;5038128;28;20032;-96
2022/04/02 14:29:21;;;;;;;20.20;11.93;;;;;;;;;;5038364;28;20352;-94
2022/04/02 14:31:47;;;;;;;26.63;15.18;;;;;;;;;;5036937;28;20053;-95
2022/04/02 14:34:25;;;;;;;24.92;15.23;;;;;;;;;;5038221;28;20025;-94
2022/04/02 14:37:04;;;;;;;18.48;11.45;;;;;;;;;;5037014;28;20438;-94
2022/04/02 14:39:56;;;;;;;17.55;11.80;;;;;;;;;;5036790;28;20041;-95
2022/04/02 14:42:41;;;;;;;18.35;12.13;;;;;;;;;;4996930;28;20042;-95
2022/04/02 14:45:27;;;;;;;19.30;11.88;;;;;;;;;;4996936;28;20066;-94
2022/04/02 14:48:01;;;;;;;24.85;14.85;;;;;;;;;;4996817;28;20030;-94
2022/04/02 14:50:33;;;;;;;17.92;11.07;;;;;;;;;;4996879;28;20046;-93
2022/04/02 14:53:11;;;;;;;21.67;12.00;;;;;;;;;;4996924;28;20090;-95
2022/04/02 14:55:52;;;;;;;18.10;9.80;;;;;;;;;;4996791;28;20089;-94
2022/04/02 14:58:26;;;;;;;19.48;11.07;;;;;;;;;;4997126;28;20053;-95
2022/04/02 15:01:01;;;;;;;22.35;11.20;;;;;;;;;;4996540;28;20100;-94
2022/04/02 15:03:45;;;;;;;27.65;15.32;;;;;;;;;;4996575;28;20030;-94
2022/04/02 15:06:12;;;;;;;17.30;9.75;;;;;;;;;;4996667;28;20038;-94
2022/04/02 15:08:50;;;;;;;22.35;12.05;;;;;;;;;;4997076;28;20030;-93
2022/04/02 15:11:16;;;;;;;18.83;10.23;;;;;;;;;;4996816;28;20058;-94
2022/04/02 15:14:12;;;;;;;14.77;9.75;;;;;;;;;;4996540;28;20476;-93
2022/04/02 15:16:39;;;;;;;11.77;7.22;;;;;;;;;;4957835;29;20063;-93
2022/04/02 15:19:22;;;;;;;10.45;5.80;;;;;;;;;;4976288;28;20181;-93
2022/04/02 15:21:53;;;;;;;8.98;5.82;;;;;;;;;;4979776;28;20034;-94
2022/04/02 15:24:19;;;;;;;13.70;7.35;;;;;;;;;;4996461;28;20543;-93
2022/04/02 15:26:50;;;;;;;20.48;9.43;;;;;;;;;;4996432;28;20121;-94
2022/04/02 15:29:16;;;;;;;19.13;9.45;;;;;;;;;;4996172;28;20026;-94
2022/04/02 15:32:00;;;;;;;19.00;9.10;;;;;;;;;;4996395;28;20496;-93
2022/04/02 15:34:27;;;;;;;20.40;10.70;;;;;;;;;;4999071;28;20034;-93
2022/04/02 15:37:00;;;;;;;22.35;10.65;;;;;;;;;;4984156;28;20030;-93
2022/04/02 15:39:33;;;;;;;14.57;8.63;;;;;;;;;;4984090;28;20043;-94
2022/04/02 15:41:59;;;;;;;15.02;9.10;;;;;;;;;;5000252;28;20069;-95
2022/04/02 15:44:30;;;;;;;14.60;9.40;;;;;;;;;;5000244;28;20037;-94
2022/04/02 15:46:57;;;;;;;15.30;11.32;;;;;;;;;;5000193;28;20081;-94
2022/04/02 15:49:30;;;;;;;16.60;10.93;;;;;;;;;;4983686;28;20080;-94
2022/04/02 15:51:56;;;;;;;25.33;15.63;;;;;;;;;;5002666;28;20056;-94
2022/04/02 15:54:27;;;;;;;23.52;16.55;;;;;;;;;;5039804;28;20427;-94
2022/04/02 15:57:05;;;;;;;21.23;13.20;;;;;;;;;;5041134;28;20049;-95
2022/04/02 15:59:35;;;;;;;22.23;13.93;;;;;;;;;;5040929;28;20434;-94
2022/04/02 16:02:02;;;;;;;14.32;9.43;;;;;;;;;;5040706;28;20030;-94
2022/04/02 16:04:28;;;;;;;14.07;10.00;;;;;;;;;;5041640;28;20036;-95
2022/04/02 16:06:55;;;;;;;24.35;14.27;;;;;;;;;;5040808;28;20025;-94